createdAt,value
2023-06-04T00:03:43.279Z,80.80
2023-06-04T00:08:45.267Z,80.78
2023-06-04T00:13:47.049Z,81.81
2023-06-04T00:18:48.721Z,82.48
2023-06-04T00:23:50.654Z,83.05
2023-06-04T00:28:52.340Z,82.49
2023-06-04T00:33:54.095Z,82.82
2023-06-04T00:38:55.824Z,83.67
2023-06-04T00:43:57.707Z,84.39
2023-06-04T00:48:59.935Z,84.43
2023-06-04T00:54:09.817Z,84.70
2023-06-04T00:59:12.065Z,84.96
2023-06-04T01:04:22.067Z,84.85
2023-06-04T01:09:24.154Z,83.69
2023-06-04T01:14:27.048Z,84.58
2023-06-04T01:19:45.514Z,84.83
2023-06-04T01:24:54.109Z,83.94
2023-06-04T01:29:58.073Z,84.61
2023-06-04T01:35:00.632Z,85.32
2023-06-04T01:40:02.377Z,86.79
2023-06-04T01:45:04.545Z,86.92
2023-06-04T01:50:10.390Z,86.84
2023-06-04T01:55:15.462Z,86.19
2023-06-04T02:00:17.621Z,88.02
2023-06-04T02:05:19.567Z,87.91
2023-06-04T02:10:21.705Z,88.42
2023-06-04T02:15:24.831Z,88.09
2023-06-04T02:20:28.144Z,88.84
2023-06-04T02:25:30.158Z,89.00
2023-06-04T02:30:32.929Z,89.23
2023-06-04T02:35:34.586Z,90.38
2023-06-04T02:40:36.252Z,90.93
2023-06-04T02:45:37.988Z,90.89
2023-06-04T02:50:40.420Z,92.73
2023-06-04T02:55:42.918Z,93.59
2023-06-04T03:00:44.645Z,93.90
2023-06-04T03:05:47.461Z,91.66
2023-06-04T03:10:49.108Z,92.04
2023-06-04T03:15:50.802Z,91.71
2023-06-04T03:20:52.531Z,91.85
2023-06-04T03:25:54.215Z,89.72
2023-06-04T03:30:56.701Z,89.39
2023-06-04T03:36:00.912Z,88.88
2023-06-04T03:41:02.701Z,88.94
2023-06-04T03:46:04.506Z,88.49
2023-06-04T03:51:07.345Z,86.50
2023-06-04T03:56:09.879Z,78.37
2023-06-04T04:01:12.065Z,70.40
2023-06-04T04:06:13.866Z,69.05
2023-06-04T04:11:17.100Z,63.91
2023-06-04T04:16:19.056Z,65.04
2023-06-04T04:21:22.111Z,61.63
2023-06-04T04:26:28.577Z,65.86
2023-06-04T04:31:32.163Z,71.00
2023-06-04T04:36:36.088Z,73.99
2023-06-04T04:41:39.148Z,76.50
2023-06-04T04:46:41.290Z,71.41
2023-06-04T04:51:43.115Z,72.88
2023-06-04T04:56:45.128Z,68.67
2023-06-04T05:01:47.290Z,65.57
2023-06-04T05:06:49.175Z,66.73
2023-06-04T05:11:51.128Z,68.23
2023-06-04T05:16:53.016Z,68.88
2023-06-04T05:21:56.139Z,68.99
2023-06-04T05:26:58.440Z,69.05
2023-06-04T05:32:01.626Z,66.61
2023-06-04T05:37:05.660Z,68.65
2023-06-04T05:42:08.042Z,66.75
2023-06-04T05:47:10.603Z,65.92
2023-06-04T05:52:13.183Z,64.43
2023-06-04T05:57:17.022Z,63.93
2023-06-04T06:02:18.996Z,63.48
2023-06-04T06:07:21.241Z,61.35
2023-06-04T06:12:23.145Z,60.11
2023-06-04T06:17:25.242Z,59.18
2023-06-04T06:22:28.425Z,56.08
2023-06-04T06:27:30.338Z,56.93
2023-06-04T06:32:32.257Z,56.48
2023-06-04T06:37:33.986Z,55.75
2023-06-04T06:42:35.754Z,55.23
2023-06-04T06:47:37.432Z,51.04
2023-06-04T06:52:39.845Z,50.97
2023-06-04T06:57:41.668Z,45.17
2023-06-04T07:02:43.577Z,44.97
2023-06-04T07:07:45.453Z,44.11
2023-06-04T07:12:47.136Z,43.02
2023-06-04T07:17:49.466Z,43.33
2023-06-04T07:22:51.249Z,39.79
2023-06-04T07:27:52.945Z,34.75
2023-06-04T07:32:54.701Z,33.46
2023-06-04T07:37:56.396Z,32.44
2023-06-04T07:42:58.086Z,31.05
2023-06-04T07:47:59.876Z,31.15
2023-06-04T07:53:01.587Z,30.94
2023-06-04T07:58:05.351Z,29.75
2023-06-04T08:03:08.204Z,32.58
2023-06-04T08:08:10.006Z,33.87
2023-06-04T08:13:11.685Z,33.64
2023-06-04T08:18:13.353Z,32.97
2023-06-04T08:23:15.032Z,31.05
2023-06-04T08:28:16.999Z,29.19
2023-06-04T08:33:18.767Z,29.03
2023-06-04T08:38:20.609Z,29.14
2023-06-04T08:43:22.640Z,29.94
2023-06-04T08:48:25.963Z,30.78
2023-06-04T08:53:27.749Z,30.40
2023-06-04T08:58:34.319Z,30.77
2023-06-04T09:03:38.388Z,33.16
2023-06-04T09:08:43.961Z,34.88
2023-06-04T09:13:48.605Z,33.83
2023-06-04T09:18:50.906Z,29.85
2023-06-04T09:23:52.694Z,32.04
2023-06-04T09:28:56.532Z,32.53
2023-06-04T09:33:58.184Z,31.20
2023-06-04T09:39:00.169Z,29.79
2023-06-04T09:44:05.327Z,30.97
2023-06-04T09:49:07.428Z,28.13
2023-06-04T09:54:09.104Z,28.05
2023-06-04T09:59:11.300Z,30.90
2023-06-04T10:04:14.672Z,29.16
2023-06-04T10:09:17.469Z,27.67
2023-06-04T10:14:41.484Z,31.03
2023-06-04T10:19:45.063Z,29.21
2023-06-04T10:24:47.900Z,31.02
2023-06-04T10:29:51.410Z,30.37
2023-06-04T10:34:53.136Z,33.11
2023-06-04T10:39:56.604Z,29.16
2023-06-04T10:44:58.642Z,29.92
2023-06-04T10:50:12.600Z,30.30
2023-06-04T10:55:14.305Z,35.07
2023-06-04T11:00:17.582Z,34.00
2023-06-04T11:05:19.790Z,29.80
2023-06-04T11:10:33.898Z,30.13
2023-06-04T11:15:49.886Z,30.45
2023-06-04T11:21:00.950Z,28.99
2023-06-04T11:26:02.672Z,28.46
2023-06-04T11:31:05.025Z,29.03
2023-06-04T11:36:06.777Z,29.84
2023-06-04T11:41:08.603Z,29.59
2023-06-04T11:46:10.995Z,29.68
2023-06-04T11:51:14.029Z,30.23
2023-06-04T11:56:16.776Z,28.13
2023-06-04T12:01:19.238Z,30.13
2023-06-04T12:06:23.849Z,30.87
2023-06-04T12:11:35.739Z,29.57
2023-06-04T12:16:37.556Z,30.39
2023-06-04T12:21:43.206Z,30.23
2023-06-04T12:26:47.509Z,29.81
2023-06-04T12:31:51.151Z,31.00
2023-06-04T12:36:52.873Z,31.82
2023-06-04T12:41:54.547Z,32.49
2023-06-04T12:46:56.302Z,34.14
2023-06-04T12:51:58.428Z,32.67
2023-06-04T12:57:00.798Z,34.00
2023-06-04T13:02:02.825Z,33.70
2023-06-04T13:07:04.590Z,32.91
2023-06-04T13:12:07.252Z,33.86
2023-06-04T13:17:21.196Z,34.70
2023-06-04T13:22:24.059Z,34.49
2023-06-04T13:27:25.711Z,35.30
2023-06-04T13:32:27.453Z,36.36
2023-06-04T13:37:29.240Z,35.79
2023-06-04T13:42:31.018Z,36.33
2023-06-04T13:47:33.429Z,35.61
2023-06-04T13:52:35.225Z,36.04
2023-06-04T13:57:36.864Z,35.14
2023-06-04T14:02:38.665Z,35.50
2023-06-04T14:07:42.901Z,34.31
2023-06-04T14:12:45.263Z,35.06
2023-06-04T14:17:48.829Z,35.48
2023-06-04T14:22:50.587Z,36.10
2023-06-04T14:27:52.431Z,35.54
2023-06-04T14:32:54.152Z,35.64
2023-06-04T14:37:55.968Z,35.77
2023-06-04T14:42:58.667Z,36.43
2023-06-04T14:48:13.998Z,36.35
2023-06-04T14:53:16.873Z,35.64
2023-06-04T14:58:18.542Z,36.16
2023-06-04T15:03:20.364Z,35.12
2023-06-04T15:08:22.184Z,35.52
2023-06-04T15:13:23.919Z,33.49
2023-06-04T15:18:25.657Z,33.34
2023-06-04T15:23:27.411Z,33.39
2023-06-04T15:28:29.104Z,33.68
2023-06-04T15:33:30.838Z,32.92
2023-06-04T15:38:33.798Z,32.28
2023-06-04T15:43:35.521Z,33.08
2023-06-04T15:48:37.212Z,34.47
2023-06-04T15:53:38.945Z,33.04
2023-06-04T15:58:40.712Z,32.41
2023-06-04T16:03:42.520Z,32.50
2023-06-04T16:08:44.246Z,32.69
2023-06-04T16:13:46.177Z,33.91
2023-06-04T16:18:48.593Z,34.69
2023-06-04T16:23:50.258Z,34.60
2023-06-04T16:28:51.980Z,35.91
2023-06-04T16:33:53.750Z,35.08
2023-06-04T16:38:55.505Z,35.17
2023-06-04T16:43:57.199Z,35.25
2023-06-04T16:48:58.853Z,35.75
2023-06-04T16:59:02.124Z,36.48
2023-06-04T17:04:03.791Z,37.39
2023-06-04T17:09:05.490Z,37.54
2023-06-04T17:14:08.428Z,38.27
2023-06-04T17:19:10.105Z,38.12
2023-06-04T17:24:12.290Z,38.89
2023-06-04T17:29:14.102Z,37.78
2023-06-04T17:34:15.813Z,38.59
2023-06-04T17:39:17.536Z,38.53
2023-06-04T17:44:19.188Z,40.16
2023-06-04T17:49:21.000Z,40.77
2023-06-04T17:54:22.744Z,39.91
2023-06-04T17:59:24.419Z,42.21
2023-06-04T18:04:26.170Z,44.27
2023-06-04T18:09:28.127Z,43.45
2023-06-04T18:14:29.795Z,44.92
2023-06-04T18:19:31.576Z,43.61
2023-06-04T18:24:37.763Z,46.00
2023-06-04T18:29:41.133Z,47.13
2023-06-04T18:34:42.891Z,46.75
2023-06-04T18:39:44.631Z,48.76
2023-06-04T18:44:46.399Z,48.09
2023-06-04T18:49:48.121Z,49.37
2023-06-04T18:54:49.783Z,50.14
2023-06-04T18:59:51.495Z,50.51
2023-06-04T19:04:53.287Z,52.10
2023-06-04T19:09:55.296Z,54.10
2023-06-04T19:14:56.971Z,53.70
2023-06-04T19:19:58.627Z,55.56
2023-06-04T19:25:00.325Z,56.64
2023-06-04T19:30:03.369Z,57.69
2023-06-04T19:35:05.685Z,58.42
2023-06-04T19:40:08.146Z,59.41
2023-06-04T19:45:10.262Z,59.65
2023-06-04T19:50:12.382Z,60.23
2023-06-04T19:55:14.081Z,61.38
2023-06-04T20:00:16.389Z,62.85
2023-06-04T20:05:18.228Z,62.83
2023-06-04T20:10:19.944Z,63.79
2023-06-04T20:15:22.351Z,63.88
2023-06-04T20:20:24.038Z,64.94
2023-06-04T20:25:25.862Z,65.25
2023-06-04T20:30:27.547Z,65.92
2023-06-04T20:35:29.584Z,67.20
2023-06-04T20:40:31.240Z,66.42
2023-06-04T20:45:33.037Z,66.60
2023-06-04T20:50:34.716Z,66.34
2023-06-04T20:55:36.637Z,68.24
2023-06-04T21:00:38.277Z,68.57
2023-06-04T21:05:39.953Z,68.89
2023-06-04T21:10:41.717Z,69.47
2023-06-04T21:15:43.690Z,70.87
2023-06-04T21:20:45.438Z,70.86
2023-06-04T21:25:47.317Z,71.22
2023-06-04T21:30:49.044Z,71.93
2023-06-04T21:35:50.843Z,72.47
2023-06-04T21:40:52.511Z,70.87
2023-06-04T21:45:54.171Z,69.76
2023-06-04T21:50:56.370Z,70.50
2023-06-04T21:55:58.080Z,69.94
2023-06-04T22:00:59.758Z,70.77
2023-06-04T22:06:01.450Z,70.76
2023-06-04T22:11:03.152Z,70.83
2023-06-04T22:16:05.559Z,72.51
2023-06-04T22:21:07.356Z,73.86
2023-06-04T22:26:10.013Z,75.20
2023-06-04T22:31:13.822Z,76.46
2023-06-04T22:36:15.577Z,77.34
2023-06-04T22:41:17.247Z,77.54
2023-06-04T22:46:18.967Z,77.85
2023-06-04T22:51:22.205Z,75.69
2023-06-04T22:56:26.385Z,75.79
2023-06-04T23:01:28.225Z,75.95
2023-06-04T23:06:29.996Z,75.06
2023-06-04T23:11:31.664Z,76.72
2023-06-04T23:16:33.397Z,76.58
2023-06-04T23:21:35.329Z,79.66
2023-06-04T23:26:37.007Z,80.69
2023-06-04T23:31:38.726Z,81.23
2023-06-04T23:36:40.513Z,81.62
2023-06-04T23:41:42.211Z,81.65
2023-06-04T23:46:43.856Z,80.16
2023-06-04T23:51:45.521Z,83.19
2023-06-04T23:56:47.316Z,83.27
